sensor_id;sensor_type;location;lat;lon;timestamp;P1;durP1;ratioP1;P2;durP2;ratioP2
56726;SDS011;42609;52.700;6.236;2022-07-23T00:00:45;6.18;;;3.15;;
56726;SDS011;42609;52.700;6.236;2022-07-23T00:03:12;5.68;;;3.33;;
56726;SDS011;42609;52.700;6.236;2022-07-23T00:05:38;5.28;;;3.38;;
56726;SDS011;42609;52.700;6.236;2022-07-23T00:08:04;5.65;;;3.63;;
56726;SDS011;42609;52.700;6.236;2022-07-23T00:10:31;6.95;;;3.40;;
56726;SDS011;42609;52.700;6.236;2022-07-23T00:12:57;5.32;;;3.72;;
56726;SDS011;42609;52.700;6.236;2022-07-23T00:15:22;7.13;;;3.60;;
56726;SDS011;42609;52.700;6.236;2022-07-23T00:17:48;5.45;;;3.50;;
56726;SDS011;42609;52.700;6.236;2022-07-23T00:20:14;6.93;;;3.95;;
56726;SDS011;42609;52.700;6.236;2022-07-23T00:22:49;6.47;;;3.60;;
56726;SDS011;42609;52.700;6.236;2022-07-23T00:25:16;6.60;;;3.58;;
56726;SDS011;42609;52.700;6.236;2022-07-23T00:27:43;5.63;;;3.67;;
56726;SDS011;42609;52.700;6.236;2022-07-23T00:30:09;7.18;;;3.78;;
56726;SDS011;42609;52.700;6.236;2022-07-23T00:32:48;8.23;;;3.72;;
56726;SDS011;42609;52.700;6.236;2022-07-23T00:35:21;5.70;;;3.78;;
56726;SDS011;42609;52.700;6.236;2022-07-23T00:37:48;5.55;;;3.60;;
56726;SDS011;42609;52.700;6.236;2022-07-23T00:40:14;5.15;;;3.40;;
56726;SDS011;42609;52.700;6.236;2022-07-23T00:42:40;6.78;;;3.53;;
56726;SDS011;42609;52.700;6.236;2022-07-23T00:45:06;5.38;;;3.30;;
56726;SDS011;42609;52.700;6.236;2022-07-23T00:47:33;7.60;;;3.67;;
56726;SDS011;42609;52.700;6.236;2022-07-23T00:49:58;5.72;;;3.70;;
56726;SDS011;42609;52.700;6.236;2022-07-23T00:52:24;6.03;;;3.45;;
56726;SDS011;42609;52.700;6.236;2022-07-23T00:54:50;7.50;;;3.60;;
56726;SDS011;42609;52.700;6.236;2022-07-23T00:57:16;5.68;;;3.30;;
56726;SDS011;42609;52.700;6.236;2022-07-23T00:59:42;5.80;;;3.60;;
56726;SDS011;42609;52.700;6.236;2022-07-23T01:02:08;5.30;;;3.30;;
56726;SDS011;42609;52.700;6.236;2022-07-23T01:04:33;5.00;;;3.30;;
56726;SDS011;42609;52.700;6.236;2022-07-23T01:06:59;7.13;;;3.75;;
56726;SDS011;42609;52.700;6.236;2022-07-23T01:09:26;5.50;;;3.65;;
56726;SDS011;42609;52.700;6.236;2022-07-23T01:11:52;7.28;;;3.63;;
56726;SDS011;42609;52.700;6.236;2022-07-23T01:14:20;6.50;;;3.70;;
56726;SDS011;42609;52.700;6.236;2022-07-23T01:16:47;6.38;;;3.42;;
56726;SDS011;42609;52.700;6.236;2022-07-23T01:19:14;7.53;;;3.70;;
56726;SDS011;42609;52.700;6.236;2022-07-23T01:21:42;4.78;;;3.50;;
56726;SDS011;42609;52.700;6.236;2022-07-23T01:24:10;5.72;;;3.28;;
56726;SDS011;42609;52.700;6.236;2022-07-23T01:26:37;6.45;;;3.28;;
56726;SDS011;42609;52.700;6.236;2022-07-23T01:29:03;7.47;;;3.40;;
56726;SDS011;42609;52.700;6.236;2022-07-23T01:31:30;5.28;;;3.13;;
56726;SDS011;42609;52.700;6.236;2022-07-23T01:33:56;5.60;;;3.00;;
56726;SDS011;42609;52.700;6.236;2022-07-23T01:36:22;5.72;;;3.30;;
56726;SDS011;42609;52.700;6.236;2022-07-23T01:38:47;5.38;;;2.80;;
56726;SDS011;42609;52.700;6.236;2022-07-23T01:41:13;4.80;;;2.97;;
56726;SDS011;42609;52.700;6.236;2022-07-23T01:43:39;5.35;;;3.05;;
56726;SDS011;42609;52.700;6.236;2022-07-23T01:46:04;6.22;;;3.10;;
56726;SDS011;42609;52.700;6.236;2022-07-23T01:48:30;5.22;;;3.20;;
56726;SDS011;42609;52.700;6.236;2022-07-23T01:50:56;5.47;;;3.42;;
56726;SDS011;42609;52.700;6.236;2022-07-23T01:53:21;7.93;;;3.83;;
56726;SDS011;42609;52.700;6.236;2022-07-23T01:55:47;5.65;;;3.38;;
56726;SDS011;42609;52.700;6.236;2022-07-23T01:58:13;5.30;;;3.50;;
56726;SDS011;42609;52.700;6.236;2022-07-23T02:00:38;5.50;;;3.08;;
56726;SDS011;42609;52.700;6.236;2022-07-23T02:03:04;5.40;;;2.78;;
56726;SDS011;42609;52.700;6.236;2022-07-23T02:05:30;6.38;;;3.25;;
56726;SDS011;42609;52.700;6.236;2022-07-23T02:07:56;4.78;;;2.92;;
56726;SDS011;42609;52.700;6.236;2022-07-23T02:10:23;5.88;;;3.38;;
56726;SDS011;42609;52.700;6.236;2022-07-23T02:12:49;5.18;;;3.15;;
56726;SDS011;42609;52.700;6.236;2022-07-23T02:15:15;5.07;;;3.33;;
56726;SDS011;42609;52.700;6.236;2022-07-23T02:17:41;4.72;;;2.80;;
56726;SDS011;42609;52.700;6.236;2022-07-23T02:20:07;4.68;;;2.80;;
56726;SDS011;42609;52.700;6.236;2022-07-23T02:22:33;4.68;;;2.92;;
56726;SDS011;42609;52.700;6.236;2022-07-23T02:24:59;4.53;;;2.80;;
56726;SDS011;42609;52.700;6.236;2022-07-23T02:27:25;4.60;;;2.80;;
56726;SDS011;42609;52.700;6.236;2022-07-23T02:29:50;4.00;;;2.47;;
56726;SDS011;42609;52.700;6.236;2022-07-23T02:32:16;5.78;;;2.90;;
56726;SDS011;42609;52.700;6.236;2022-07-23T02:34:42;4.90;;;2.80;;
56726;SDS011;42609;52.700;6.236;2022-07-23T02:37:07;6.38;;;2.92;;
56726;SDS011;42609;52.700;6.236;2022-07-23T02:39:33;5.93;;;3.00;;
56726;SDS011;42609;52.700;6.236;2022-07-23T02:42:00;4.50;;;2.45;;
56726;SDS011;42609;52.700;6.236;2022-07-23T02:44:26;5.80;;;2.90;;
56726;SDS011;42609;52.700;6.236;2022-07-23T02:46:51;4.95;;;3.28;;
56726;SDS011;42609;52.700;6.236;2022-07-23T02:49:17;4.95;;;2.83;;
56726;SDS011;42609;52.700;6.236;2022-07-23T02:51:42;6.00;;;2.90;;
56726;SDS011;42609;52.700;6.236;2022-07-23T02:54:08;4.75;;;2.80;;
56726;SDS011;42609;52.700;6.236;2022-07-23T02:56:34;5.72;;;2.75;;
56726;SDS011;42609;52.700;6.236;2022-07-23T02:58:59;5.95;;;2.90;;
56726;SDS011;42609;52.700;6.236;2022-07-23T03:01:25;7.28;;;2.92;;
56726;SDS011;42609;52.700;6.236;2022-07-23T03:03:50;5.80;;;3.22;;
56726;SDS011;42609;52.700;6.236;2022-07-23T03:06:16;5.55;;;2.95;;
56726;SDS011;42609;52.700;6.236;2022-07-23T03:08:42;4.65;;;3.15;;
56726;SDS011;42609;52.700;6.236;2022-07-23T03:11:07;5.40;;;2.92;;
56726;SDS011;42609;52.700;6.236;2022-07-23T03:13:39;6.18;;;3.33;;
56726;SDS011;42609;52.700;6.236;2022-07-23T03:16:06;4.50;;;3.00;;
56726;SDS011;42609;52.700;6.236;2022-07-23T03:18:32;3.88;;;2.80;;
56726;SDS011;42609;52.700;6.236;2022-07-23T03:20:58;5.13;;;2.90;;
56726;SDS011;42609;52.700;6.236;2022-07-23T03:23:23;5.03;;;2.92;;
56726;SDS011;42609;52.700;6.236;2022-07-23T03:25:49;7.15;;;3.10;;
56726;SDS011;42609;52.700;6.236;2022-07-23T03:28:15;9.02;;;3.63;;
56726;SDS011;42609;52.700;6.236;2022-07-23T03:30:42;6.50;;;3.10;;
56726;SDS011;42609;52.700;6.236;2022-07-23T03:33:08;5.72;;;3.15;;
56726;SDS011;42609;52.700;6.236;2022-07-23T03:35:34;6.47;;;3.40;;
56726;SDS011;42609;52.700;6.236;2022-07-23T03:37:59;5.65;;;2.80;;
56726;SDS011;42609;52.700;6.236;2022-07-23T03:40:25;5.65;;;2.97;;
56726;SDS011;42609;52.700;6.236;2022-07-23T03:42:51;5.18;;;2.90;;
56726;SDS011;42609;52.700;6.236;2022-07-23T03:45:16;4.15;;;2.80;;
56726;SDS011;42609;52.700;6.236;2022-07-23T03:47:42;6.32;;;3.00;;
56726;SDS011;42609;52.700;6.236;2022-07-23T03:50:09;5.40;;;3.17;;
56726;SDS011;42609;52.700;6.236;2022-07-23T03:52:35;5.70;;;3.15;;
56726;SDS011;42609;52.700;6.236;2022-07-23T03:55:01;5.38;;;3.20;;
56726;SDS011;42609;52.700;6.236;2022-07-23T03:57:27;5.90;;;3.60;;
56726;SDS011;42609;52.700;6.236;2022-07-23T03:59:52;5.88;;;3.90;;
56726;SDS011;42609;52.700;6.236;2022-07-23T04:02:18;5.85;;;3.38;;
56726;SDS011;42609;52.700;6.236;2022-07-23T04:04:43;5.25;;;3.35;;
56726;SDS011;42609;52.700;6.236;2022-07-23T04:07:09;6.40;;;3.10;;
56726;SDS011;42609;52.700;6.236;2022-07-23T04:09:34;5.38;;;3.00;;
56726;SDS011;42609;52.700;6.236;2022-07-23T04:12:00;5.38;;;3.00;;
56726;SDS011;42609;52.700;6.236;2022-07-23T04:14:26;4.57;;;2.70;;
56726;SDS011;42609;52.700;6.236;2022-07-23T04:16:52;5.20;;;3.00;;
56726;SDS011;42609;52.700;6.236;2022-07-23T04:19:17;5.68;;;2.78;;
56726;SDS011;42609;52.700;6.236;2022-07-23T04:21:43;7.07;;;2.20;;
56726;SDS011;42609;52.700;6.236;2022-07-23T04:24:08;4.45;;;2.25;;
56726;SDS011;42609;52.700;6.236;2022-07-23T04:26:34;3.53;;;1.95;;
56726;SDS011;42609;52.700;6.236;2022-07-23T04:28:59;4.88;;;2.20;;
56726;SDS011;42609;52.700;6.236;2022-07-23T04:31:25;3.30;;;1.80;;
56726;SDS011;42609;52.700;6.236;2022-07-23T04:33:50;4.43;;;1.95;;
56726;SDS011;42609;52.700;6.236;2022-07-23T04:36:16;3.78;;;1.80;;
56726;SDS011;42609;52.700;6.236;2022-07-23T04:38:41;4.90;;;1.90;;
56726;SDS011;42609;52.700;6.236;2022-07-23T04:41:07;4.25;;;1.90;;
56726;SDS011;42609;52.700;6.236;2022-07-23T04:43:32;4.45;;;2.00;;
56726;SDS011;42609;52.700;6.236;2022-07-23T04:45:58;4.05;;;2.00;;
56726;SDS011;42609;52.700;6.236;2022-07-23T04:48:24;3.97;;;1.90;;
56726;SDS011;42609;52.700;6.236;2022-07-23T04:50:49;4.45;;;2.25;;
56726;SDS011;42609;52.700;6.236;2022-07-23T04:53:15;4.18;;;1.88;;
56726;SDS011;42609;52.700;6.236;2022-07-23T04:55:40;4.53;;;2.35;;
56726;SDS011;42609;52.700;6.236;2022-07-23T04:58:06;6.18;;;2.63;;
56726;SDS011;42609;52.700;6.236;2022-07-23T05:00:32;6.18;;;2.80;;
56726;SDS011;42609;52.700;6.236;2022-07-23T05:02:57;6.32;;;2.72;;
56726;SDS011;42609;52.700;6.236;2022-07-23T05:05:23;4.57;;;2.58;;
56726;SDS011;42609;52.700;6.236;2022-07-23T05:07:48;4.25;;;2.65;;
56726;SDS011;42609;52.700;6.236;2022-07-23T05:10:14;5.72;;;3.00;;
56726;SDS011;42609;52.700;6.236;2022-07-23T05:12:39;5.40;;;2.75;;
56726;SDS011;42609;52.700;6.236;2022-07-23T05:15:05;7.13;;;2.88;;
56726;SDS011;42609;52.700;6.236;2022-07-23T05:17:31;5.40;;;3.30;;
56726;SDS011;42609;52.700;6.236;2022-07-23T05:19:56;6.93;;;3.97;;
56726;SDS011;42609;52.700;6.236;2022-07-23T05:22:22;8.45;;;4.05;;
56726;SDS011;42609;52.700;6.236;2022-07-23T05:24:48;8.15;;;4.50;;
56726;SDS011;42609;52.700;6.236;2022-07-23T05:27:13;7.05;;;4.25;;
56726;SDS011;42609;52.700;6.236;2022-07-23T05:29:39;6.55;;;4.10;;
56726;SDS011;42609;52.700;6.236;2022-07-23T05:32:04;7.53;;;4.05;;
56726;SDS011;42609;52.700;6.236;2022-07-23T05:34:30;9.57;;;3.67;;
56726;SDS011;42609;52.700;6.236;2022-07-23T05:36:56;6.25;;;3.70;;
56726;SDS011;42609;52.700;6.236;2022-07-23T05:39:21;10.00;;;4.80;;
56726;SDS011;42609;52.700;6.236;2022-07-23T05:41:47;6.40;;;3.85;;
56726;SDS011;42609;52.700;6.236;2022-07-23T05:44:12;7.60;;;3.90;;
56726;SDS011;42609;52.700;6.236;2022-07-23T05:46:38;6.05;;;3.70;;
56726;SDS011;42609;52.700;6.236;2022-07-23T05:49:03;5.93;;;3.33;;
56726;SDS011;42609;52.700;6.236;2022-07-23T05:51:29;5.15;;;3.15;;
56726;SDS011;42609;52.700;6.236;2022-07-23T05:53:54;6.28;;;3.15;;
56726;SDS011;42609;52.700;6.236;2022-07-23T05:56:20;4.93;;;2.60;;
56726;SDS011;42609;52.700;6.236;2022-07-23T05:58:46;7.03;;;2.47;;
56726;SDS011;42609;52.700;6.236;2022-07-23T06:01:11;4.25;;;2.40;;
56726;SDS011;42609;52.700;6.236;2022-07-23T06:03:37;7.40;;;2.70;;
56726;SDS011;42609;52.700;6.236;2022-07-23T06:06:03;6.53;;;2.83;;
56726;SDS011;42609;52.700;6.236;2022-07-23T06:08:30;4.63;;;2.53;;
56726;SDS011;42609;52.700;6.236;2022-07-23T06:10:55;5.68;;;2.72;;
56726;SDS011;42609;52.700;6.236;2022-07-23T06:13:21;6.43;;;2.30;;
56726;SDS011;42609;52.700;6.236;2022-07-23T06:15:46;4.78;;;2.20;;
56726;SDS011;42609;52.700;6.236;2022-07-23T06:18:12;5.22;;;2.50;;
56726;SDS011;42609;52.700;6.236;2022-07-23T06:20:37;6.97;;;2.20;;
56726;SDS011;42609;52.700;6.236;2022-07-23T06:23:03;5.78;;;2.10;;
56726;SDS011;42609;52.700;6.236;2022-07-23T06:25:29;4.22;;;1.85;;
56726;SDS011;42609;52.700;6.236;2022-07-23T06:27:54;5.63;;;2.22;;
56726;SDS011;42609;52.700;6.236;2022-07-23T06:30:20;5.13;;;1.90;;
56726;SDS011;42609;52.700;6.236;2022-07-23T06:32:46;5.05;;;1.90;;
56726;SDS011;42609;52.700;6.236;2022-07-23T06:35:13;4.25;;;1.85;;
56726;SDS011;42609;52.700;6.236;2022-07-23T06:37:39;4.75;;;1.52;;
56726;SDS011;42609;52.700;6.236;2022-07-23T06:40:04;4.25;;;1.83;;
56726;SDS011;42609;52.700;6.236;2022-07-23T06:42:31;5.05;;;1.60;;
56726;SDS011;42609;52.700;6.236;2022-07-23T06:44:56;4.50;;;1.60;;
56726;SDS011;42609;52.700;6.236;2022-07-23T06:47:22;4.30;;;1.45;;
56726;SDS011;42609;52.700;6.236;2022-07-23T06:49:47;4.30;;;1.60;;
56726;SDS011;42609;52.700;6.236;2022-07-23T06:52:13;4.07;;;1.50;;
56726;SDS011;42609;52.700;6.236;2022-07-23T06:54:39;4.15;;;1.30;;
56726;SDS011;42609;52.700;6.236;2022-07-23T06:57:05;4.97;;;1.48;;
56726;SDS011;42609;52.700;6.236;2022-07-23T06:59:30;5.03;;;1.45;;
56726;SDS011;42609;52.700;6.236;2022-07-23T07:01:56;3.13;;;1.50;;
56726;SDS011;42609;52.700;6.236;2022-07-23T07:04:23;4.00;;;1.40;;
56726;SDS011;42609;52.700;6.236;2022-07-23T07:06:48;3.88;;;1.50;;
56726;SDS011;42609;52.700;6.236;2022-07-23T07:09:14;4.38;;;1.40;;
56726;SDS011;42609;52.700;6.236;2022-07-23T07:11:39;4.38;;;1.77;;
56726;SDS011;42609;52.700;6.236;2022-07-23T07:14:05;3.63;;;1.70;;
56726;SDS011;42609;52.700;6.236;2022-07-23T07:16:31;3.58;;;1.30;;
56726;SDS011;42609;52.700;6.236;2022-07-23T07:18:57;5.45;;;1.70;;
56726;SDS011;42609;52.700;6.236;2022-07-23T07:21:23;4.13;;;1.55;;
56726;SDS011;42609;52.700;6.236;2022-07-23T07:23:48;3.22;;;1.20;;
56726;SDS011;42609;52.700;6.236;2022-07-23T07:26:14;2.65;;;1.20;;
56726;SDS011;42609;52.700;6.236;2022-07-23T07:28:39;2.38;;;1.00;;
56726;SDS011;42609;52.700;6.236;2022-07-23T07:31:05;2.05;;;1.02;;
56726;SDS011;42609;52.700;6.236;2022-07-23T07:33:31;2.67;;;1.35;;
56726;SDS011;42609;52.700;6.236;2022-07-23T07:35:56;3.22;;;1.00;;
56726;SDS011;42609;52.700;6.236;2022-07-23T07:38:22;2.03;;;0.82;;
56726;SDS011;42609;52.700;6.236;2022-07-23T07:40:48;4.47;;;1.20;;
56726;SDS011;42609;52.700;6.236;2022-07-23T07:43:13;3.20;;;1.15;;
56726;SDS011;42609;52.700;6.236;2022-07-23T07:45:39;3.78;;;1.58;;
56726;SDS011;42609;52.700;6.236;2022-07-23T07:48:05;3.30;;;1.60;;
56726;SDS011;42609;52.700;6.236;2022-07-23T07:50:30;3.42;;;1.20;;
56726;SDS011;42609;52.700;6.236;2022-07-23T07:52:56;2.78;;;1.33;;
56726;SDS011;42609;52.700;6.236;2022-07-23T07:55:21;4.78;;;1.48;;
56726;SDS011;42609;52.700;6.236;2022-07-23T07:57:47;4.47;;;1.48;;
56726;SDS011;42609;52.700;6.236;2022-07-23T08:00:13;4.57;;;1.52;;
56726;SDS011;42609;52.700;6.236;2022-07-23T08:02:48;4.95;;;1.27;;
56726;SDS011;42609;52.700;6.236;2022-07-23T08:05:20;2.92;;;1.40;;
56726;SDS011;42609;52.700;6.236;2022-07-23T08:07:49;3.53;;;1.10;;
56726;SDS011;42609;52.700;6.236;2022-07-23T08:10:15;3.65;;;1.50;;
56726;SDS011;42609;52.700;6.236;2022-07-23T08:12:42;3.30;;;1.35;;
56726;SDS011;42609;52.700;6.236;2022-07-23T08:15:16;1.52;;;0.90;;
56726;SDS011;42609;52.700;6.236;2022-07-23T08:17:45;3.03;;;1.00;;
56726;SDS011;42609;52.700;6.236;2022-07-23T08:20:12;4.45;;;1.10;;
56726;SDS011;42609;52.700;6.236;2022-07-23T08:22:58;3.67;;;1.00;;
56726;SDS011;42609;52.700;6.236;2022-07-23T08:25:32;3.28;;;0.85;;
56726;SDS011;42609;52.700;6.236;2022-07-23T08:27:59;2.58;;;0.88;;
56726;SDS011;42609;52.700;6.236;2022-07-23T08:30:26;3.30;;;1.35;;
56726;SDS011;42609;52.700;6.236;2022-07-23T08:32:56;1.77;;;0.80;;
56726;SDS011;42609;52.700;6.236;2022-07-23T08:37:56;2.38;;;1.10;;
56726;SDS011;42609;52.700;6.236;2022-07-23T08:40:23;1.10;;;0.70;;
56726;SDS011;42609;52.700;6.236;2022-07-23T08:42:51;2.38;;;0.60;;
56726;SDS011;42609;52.700;6.236;2022-07-23T08:45:18;3.65;;;1.10;;
56726;SDS011;42609;52.700;6.236;2022-07-23T08:47:47;2.10;;;0.90;;
56726;SDS011;42609;52.700;6.236;2022-07-23T08:50:25;3.38;;;1.05;;
56726;SDS011;42609;52.700;6.236;2022-07-23T08:52:52;4.15;;;1.40;;
56726;SDS011;42609;52.700;6.236;2022-07-23T08:55:18;4.20;;;1.10;;
56726;SDS011;42609;52.700;6.236;2022-07-23T08:57:47;3.15;;;1.10;;
56726;SDS011;42609;52.700;6.236;2022-07-23T09:00:15;3.45;;;1.10;;
56726;SDS011;42609;52.700;6.236;2022-07-23T09:02:42;4.32;;;0.88;;
56726;SDS011;42609;52.700;6.236;2022-07-23T09:05:09;2.15;;;0.80;;
56726;SDS011;42609;52.700;6.236;2022-07-23T09:07:37;1.52;;;0.77;;
56726;SDS011;42609;52.700;6.236;2022-07-23T09:10:22;1.95;;;0.80;;
56726;SDS011;42609;52.700;6.236;2022-07-23T09:12:48;1.10;;;0.73;;
56726;SDS011;42609;52.700;6.236;2022-07-23T09:15:14;1.75;;;0.80;;
56726;SDS011;42609;52.700;6.236;2022-07-23T09:17:40;1.60;;;0.80;;
56726;SDS011;42609;52.700;6.236;2022-07-23T09:20:08;1.17;;;0.57;;
56726;SDS011;42609;52.700;6.236;2022-07-23T09:22:48;1.55;;;0.60;;
56726;SDS011;42609;52.700;6.236;2022-07-23T09:25:15;1.02;;;0.60;;
56726;SDS011;42609;52.700;6.236;2022-07-23T09:27:45;1.67;;;0.70;;
56726;SDS011;42609;52.700;6.236;2022-07-23T09:30:17;3.63;;;0.85;;
56726;SDS011;42609;52.700;6.236;2022-07-23T09:32:43;2.58;;;0.90;;
56726;SDS011;42609;52.700;6.236;2022-07-23T09:35:08;0.98;;;0.75;;
56726;SDS011;42609;52.700;6.236;2022-07-23T09:37:34;1.13;;;0.70;;
56726;SDS011;42609;52.700;6.236;2022-07-23T09:40:07;2.55;;;1.02;;
56726;SDS011;42609;52.700;6.236;2022-07-23T09:42:36;1.85;;;0.70;;
56726;SDS011;42609;52.700;6.236;2022-07-23T09:45:02;2.90;;;0.80;;
56726;SDS011;42609;52.700;6.236;2022-07-23T09:47:29;4.25;;;1.00;;
56726;SDS011;42609;52.700;6.236;2022-07-23T09:50:00;1.23;;;0.73;;
56726;SDS011;42609;52.700;6.236;2022-07-23T09:52:52;1.95;;;0.80;;
56726;SDS011;42609;52.700;6.236;2022-07-23T09:55:17;2.58;;;1.00;;
56726;SDS011;42609;52.700;6.236;2022-07-23T09:57:43;2.92;;;1.00;;
56726;SDS011;42609;52.700;6.236;2022-07-23T10:00:11;2.67;;;1.17;;
56726;SDS011;42609;52.700;6.236;2022-07-23T10:02:38;2.53;;;1.10;;
56726;SDS011;42609;52.700;6.236;2022-07-23T10:05:05;2.95;;;1.10;;
56726;SDS011;42609;52.700;6.236;2022-07-23T10:07:33;2.85;;;1.15;;
56726;SDS011;42609;52.700;6.236;2022-07-23T10:10:02;3.40;;;0.90;;
56726;SDS011;42609;52.700;6.236;2022-07-23T10:12:30;1.88;;;0.93;;
56726;SDS011;42609;52.700;6.236;2022-07-23T10:15:05;2.83;;;0.85;;
56726;SDS011;42609;52.700;6.236;2022-07-23T10:17:31;3.20;;;1.20;;
56726;SDS011;42609;52.700;6.236;2022-07-23T10:19:57;2.95;;;1.00;;
56726;SDS011;42609;52.700;6.236;2022-07-23T10:22:24;3.78;;;1.30;;
56726;SDS011;42609;52.700;6.236;2022-07-23T10:24:55;1.52;;;0.90;;
56726;SDS011;42609;52.700;6.236;2022-07-23T10:27:41;3.85;;;1.20;;
56726;SDS011;42609;52.700;6.236;2022-07-23T10:30:28;2.55;;;1.10;;
56726;SDS011;42609;52.700;6.236;2022-07-23T10:36:36;2.50;;;1.10;;
56726;SDS011;42609;52.700;6.236;2022-07-23T10:38:53;1.70;;;1.00;;
56726;SDS011;42609;52.700;6.236;2022-07-23T10:47:10;4.43;;;1.42;;
56726;SDS011;42609;52.700;6.236;2022-07-23T10:49:45;3.03;;;1.35;;
56726;SDS011;42609;52.700;6.236;2022-07-23T10:54:43;3.00;;;1.30;;
56726;SDS011;42609;52.700;6.236;2022-07-23T10:57:09;2.67;;;1.35;;
56726;SDS011;42609;52.700;6.236;2022-07-23T11:02:31;2.88;;;1.10;;
56726;SDS011;42609;52.700;6.236;2022-07-23T11:05:05;2.38;;;1.35;;
56726;SDS011;42609;52.700;6.236;2022-07-23T11:07:31;2.60;;;1.30;;
56726;SDS011;42609;52.700;6.236;2022-07-23T11:09:56;2.97;;;1.30;;
56726;SDS011;42609;52.700;6.236;2022-07-23T11:17:38;2.88;;;1.60;;
56726;SDS011;42609;52.700;6.236;2022-07-23T11:20:16;3.03;;;1.55;;
56726;SDS011;42609;52.700;6.236;2022-07-23T11:25:10;3.35;;;1.50;;
56726;SDS011;42609;52.700;6.236;2022-07-23T11:27:55;2.78;;;1.30;;
56726;SDS011;42609;52.700;6.236;2022-07-23T11:35:33;3.58;;;1.30;;
56726;SDS011;42609;52.700;6.236;2022-07-23T11:38:07;3.08;;;1.73;;
56726;SDS011;42609;52.700;6.236;2022-07-23T11:40:38;2.47;;;1.20;;
56726;SDS011;42609;52.700;6.236;2022-07-23T11:43:05;3.22;;;1.20;;
56726;SDS011;42609;52.700;6.236;2022-07-23T11:45:39;2.42;;;1.10;;
56726;SDS011;42609;52.700;6.236;2022-07-23T11:48:08;3.50;;;1.38;;
56726;SDS011;42609;52.700;6.236;2022-07-23T11:50:40;3.28;;;1.40;;
56726;SDS011;42609;52.700;6.236;2022-07-23T11:53:06;2.03;;;1.30;;
56726;SDS011;42609;52.700;6.236;2022-07-23T11:55:32;4.25;;;1.48;;
56726;SDS011;42609;52.700;6.236;2022-07-23T11:57:57;3.40;;;1.40;;
56726;SDS011;42609;52.700;6.236;2022-07-23T12:00:24;2.95;;;1.38;;
56726;SDS011;42609;52.700;6.236;2022-07-23T12:02:52;3.15;;;1.33;;
56726;SDS011;42609;52.700;6.236;2022-07-23T12:05:21;2.80;;;1.50;;
56726;SDS011;42609;52.700;6.236;2022-07-23T12:07:52;2.42;;;1.40;;
56726;SDS011;42609;52.700;6.236;2022-07-23T12:10:20;2.70;;;1.20;;
56726;SDS011;42609;52.700;6.236;2022-07-23T12:12:49;2.90;;;1.30;;
56726;SDS011;42609;52.700;6.236;2022-07-23T12:15:18;1.88;;;1.20;;
56726;SDS011;42609;52.700;6.236;2022-07-23T12:17:46;2.58;;;1.20;;
56726;SDS011;42609;52.700;6.236;2022-07-23T12:20:14;3.03;;;1.17;;
56726;SDS011;42609;52.700;6.236;2022-07-23T12:22:46;2.42;;;1.30;;
56726;SDS011;42609;52.700;6.236;2022-07-23T12:25:20;2.22;;;1.10;;
56726;SDS011;42609;52.700;6.236;2022-07-23T12:27:57;2.83;;;1.35;;
56726;SDS011;42609;52.700;6.236;2022-07-23T12:30:32;3.38;;;1.35;;
56726;SDS011;42609;52.700;6.236;2022-07-23T12:33:07;3.53;;;1.40;;
56726;SDS011;42609;52.700;6.236;2022-07-23T12:35:35;2.80;;;1.50;;
56726;SDS011;42609;52.700;6.236;2022-07-23T12:38:05;3.38;;;1.33;;
56726;SDS011;42609;52.700;6.236;2022-07-23T12:40:46;2.97;;;1.40;;
56726;SDS011;42609;52.700;6.236;2022-07-23T12:51:19;2.80;;;1.30;;
56726;SDS011;42609;52.700;6.236;2022-07-23T12:53:49;2.67;;;1.27;;
56726;SDS011;42609;52.700;6.236;2022-07-23T12:56:21;3.35;;;1.50;;
56726;SDS011;42609;52.700;6.236;2022-07-23T12:58:56;2.38;;;1.35;;
56726;SDS011;42609;52.700;6.236;2022-07-23T13:01:24;2.72;;;1.40;;
56726;SDS011;42609;52.700;6.236;2022-07-23T13:03:59;4.18;;;1.42;;
56726;SDS011;42609;52.700;6.236;2022-07-23T13:06:26;3.58;;;1.35;;
56726;SDS011;42609;52.700;6.236;2022-07-23T13:08:53;3.53;;;1.40;;
56726;SDS011;42609;52.700;6.236;2022-07-23T13:11:19;3.78;;;1.40;;
56726;SDS011;42609;52.700;6.236;2022-07-23T13:13:44;2.92;;;1.33;;
56726;SDS011;42609;52.700;6.236;2022-07-23T13:16:10;1.65;;;1.20;;
56726;SDS011;42609;52.700;6.236;2022-07-23T13:18:36;3.15;;;1.40;;
56726;SDS011;42609;52.700;6.236;2022-07-23T13:21:01;3.03;;;1.30;;
56726;SDS011;42609;52.700;6.236;2022-07-23T13:23:27;2.28;;;1.38;;
56726;SDS011;42609;52.700;6.236;2022-07-23T13:25:53;2.15;;;1.20;;
56726;SDS011;42609;52.700;6.236;2022-07-23T13:28:19;2.22;;;1.25;;
56726;SDS011;42609;52.700;6.236;2022-07-23T13:30:45;4.47;;;1.20;;
56726;SDS011;42609;52.700;6.236;2022-07-23T13:33:14;3.03;;;1.10;;
56726;SDS011;42609;52.700;6.236;2022-07-23T13:35:40;3.45;;;1.30;;
56726;SDS011;42609;52.700;6.236;2022-07-23T13:38:06;2.38;;;1.20;;
56726;SDS011;42609;52.700;6.236;2022-07-23T13:40:35;4.18;;;1.52;;
56726;SDS011;42609;52.700;6.236;2022-07-23T13:43:04;2.17;;;1.23;;
56726;SDS011;42609;52.700;6.236;2022-07-23T13:45:33;3.15;;;1.30;;
56726;SDS011;42609;52.700;6.236;2022-07-23T13:47:59;1.70;;;1.00;;
56726;SDS011;42609;52.700;6.236;2022-07-23T13:50:25;3.25;;;1.45;;
56726;SDS011;42609;52.700;6.236;2022-07-23T13:52:51;2.35;;;1.20;;
56726;SDS011;42609;52.700;6.236;2022-07-23T13:55:17;2.53;;;1.45;;
56726;SDS011;42609;52.700;6.236;2022-07-23T13:57:42;2.03;;;1.40;;
56726;SDS011;42609;52.700;6.236;2022-07-23T14:00:11;3.30;;;1.20;;
56726;SDS011;42609;52.700;6.236;2022-07-23T14:02:37;2.97;;;1.10;;
56726;SDS011;42609;52.700;6.236;2022-07-23T14:05:05;3.22;;;1.30;;
56726;SDS011;42609;52.700;6.236;2022-07-23T14:07:33;2.50;;;1.40;;
56726;SDS011;42609;52.700;6.236;2022-07-23T14:10:00;1.67;;;1.27;;
56726;SDS011;42609;52.700;6.236;2022-07-23T14:12:26;3.10;;;1.20;;
56726;SDS011;42609;52.700;6.236;2022-07-23T14:14:51;3.20;;;1.30;;
56726;SDS011;42609;52.700;6.236;2022-07-23T14:17:17;3.67;;;1.40;;
56726;SDS011;42609;52.700;6.236;2022-07-23T14:19:43;2.45;;;1.38;;
56726;SDS011;42609;52.700;6.236;2022-07-23T14:22:09;3.15;;;1.30;;
56726;SDS011;42609;52.700;6.236;2022-07-23T14:24:34;3.97;;;1.50;;
56726;SDS011;42609;52.700;6.236;2022-07-23T14:27:00;2.15;;;1.30;;
56726;SDS011;42609;52.700;6.236;2022-07-23T14:29:27;2.25;;;1.40;;
56726;SDS011;42609;52.700;6.236;2022-07-23T14:31:52;2.75;;;1.30;;
56726;SDS011;42609;52.700;6.236;2022-07-23T14:34:18;2.33;;;1.40;;
56726;SDS011;42609;52.700;6.236;2022-07-23T14:36:44;2.92;;;1.50;;
56726;SDS011;42609;52.700;6.236;2022-07-23T14:39:09;2.67;;;1.40;;
56726;SDS011;42609;52.700;6.236;2022-07-23T14:41:36;3.88;;;1.70;;
56726;SDS011;42609;52.700;6.236;2022-07-23T14:44:03;3.42;;;1.77;;
56726;SDS011;42609;52.700;6.236;2022-07-23T14:46:28;3.97;;;1.48;;
56726;SDS011;42609;52.700;6.236;2022-07-23T14:48:54;3.65;;;1.20;;
56726;SDS011;42609;52.700;6.236;2022-07-23T14:51:20;3.03;;;1.13;;
56726;SDS011;42609;52.700;6.236;2022-07-23T14:53:46;2.22;;;1.27;;
56726;SDS011;42609;52.700;6.236;2022-07-23T14:56:11;3.05;;;1.20;;
56726;SDS011;42609;52.700;6.236;2022-07-23T14:58:38;2.35;;;1.33;;
56726;SDS011;42609;52.700;6.236;2022-07-23T15:01:04;4.28;;;1.60;;
56726;SDS011;42609;52.700;6.236;2022-07-23T15:03:30;1.77;;;1.10;;
56726;SDS011;42609;52.700;6.236;2022-07-23T15:05:56;2.85;;;1.40;;
56726;SDS011;42609;52.700;6.236;2022-07-23T15:08:21;2.22;;;1.30;;
56726;SDS011;42609;52.700;6.236;2022-07-23T15:10:47;3.33;;;1.50;;
56726;SDS011;42609;52.700;6.236;2022-07-23T15:13:12;3.33;;;1.23;;
56726;SDS011;42609;52.700;6.236;2022-07-23T15:15:38;3.13;;;1.55;;
56726;SDS011;42609;52.700;6.236;2022-07-23T15:18:04;3.33;;;1.50;;
56726;SDS011;42609;52.700;6.236;2022-07-23T15:20:30;2.13;;;1.35;;
56726;SDS011;42609;52.700;6.236;2022-07-23T15:22:56;3.58;;;1.88;;
56726;SDS011;42609;52.700;6.236;2022-07-23T15:25:22;2.90;;;1.23;;